Time;durP1;ratioP1;P1;durP2;ratioP2;P2;SDS_P1;SDS_P2;PMS_P1;PMS_P2;Temp;Humidity;BMP_temperature;BMP_pressure;BME280_temperature;BME280_humidity;BME280_pressure;Samples;Min_cycle;Max_cycle;Signal;HPM_P1;HPM_P2
2023/11/20 00:02:18;;;;;;;9.98;1.48;;;;;;;;;;5002650;28;20210;-82
2023/11/20 00:04:44;;;;;;;4.53;1.25;;;;;;;;;;5017054;28;20188;-82
2023/11/20 00:07:10;;;;;;;10.87;1.50;;;;;;;;;;5010662;28;20257;-83
2023/11/20 00:09:36;;;;;;;7.95;1.90;;;;;;;;;;4985527;28;20440;-80
2023/11/20 00:12:03;;;;;;;6.05;2.17;;;;;;;;;;5008079;28;20185;-80
2023/11/20 00:14:29;;;;;;;6.40;1.88;;;;;;;;;;5009177;28;20606;-81
2023/11/20 00:16:55;;;;;;;16.75;3.15;;;;;;;;;;5013539;28;20566;-80
2023/11/20 00:19:22;;;;;;;7.03;2.13;;;;;;;;;;5015284;28;20210;-80
2023/11/20 00:21:48;;;;;;;7.65;2.05;;;;;;;;;;5014702;28;20198;-79
2023/11/20 00:24:14;;;;;;;8.30;2.75;;;;;;;;;;5019367;28;20652;-79
2023/11/20 00:26:40;;;;;;;8.98;2.10;;;;;;;;;;5022597;28;20191;-79
2023/11/20 00:29:07;;;;;;;7.82;1.77;;;;;;;;;;5017231;28;20221;-79
2023/11/20 00:31:34;;;;;;;6.65;1.73;;;;;;;;;;5019328;28;20773;-78
2023/11/20 00:34:00;;;;;;;8.23;1.95;;;;;;;;;;5011606;28;20187;-78
2023/11/20 00:36:26;;;;;;;8.80;2.70;;;;;;;;;;5022166;28;20253;-79
2023/11/20 00:38:52;;;;;;;5.17;1.83;;;;;;;;;;5018307;28;20187;-79
2023/11/20 00:41:21;;;;;;;10.32;2.28;;;;;;;;;;5015305;28;20846;-79
2023/11/20 00:43:47;;;;;;;7.57;1.85;;;;;;;;;;5019011;28;20179;-79
2023/11/20 00:46:13;;;;;;;8.03;2.50;;;;;;;;;;5010421;28;20594;-79
2023/11/20 00:48:39;;;;;;;10.73;3.10;;;;;;;;;;5011594;28;20417;-79
2023/11/20 00:51:06;;;;;;;12.68;2.28;;;;;;;;;;5020890;28;20193;-79
2023/11/20 00:53:32;;;;;;;12.38;2.17;;;;;;;;;;5016227;28;20187;-78
2023/11/20 00:55:58;;;;;;;4.95;1.67;;;;;;;;;;5014854;28;20565;-78
2023/11/20 00:58:25;;;;;;;6.97;2.50;;;;;;;;;;5008740;28;20194;-79
2023/11/20 01:00:54;;;;;;;6.25;1.90;;;;;;;;;;5018569;28;20178;-78
2023/11/20 01:03:20;;;;;;;13.65;1.95;;;;;;;;;;5012738;28;20171;-79
2023/11/20 01:05:46;;;;;;;10.20;2.00;;;;;;;;;;5015441;28;20240;-78
2023/11/20 01:08:12;;;;;;;6.73;1.63;;;;;;;;;;5011160;28;20431;-78
2023/11/20 01:10:39;;;;;;;11.25;2.00;;;;;;;;;;5007003;28;20944;-78
2023/11/20 01:13:05;;;;;;;13.45;2.85;;;;;;;;;;5001824;28;20176;-78
2023/11/20 01:15:31;;;;;;;10.50;2.28;;;;;;;;;;5014595;28;20182;-78
2023/11/20 01:17:58;;;;;;;6.10;2.27;;;;;;;;;;5012965;28;20218;-78
2023/11/20 01:20:24;;;;;;;7.07;1.63;;;;;;;;;;5013603;28;20429;-78
2023/11/20 01:22:50;;;;;;;9.10;1.97;;;;;;;;;;5016860;28;20241;-78
2023/11/20 01:25:16;;;;;;;4.80;1.40;;;;;;;;;;5015268;28;20450;-79
2023/11/20 01:27:41;;;;;;;6.53;2.43;;;;;;;;;;5005823;28;20977;-78
2023/11/20 01:30:11;;;;;;;10.10;2.30;;;;;;;;;;5022370;28;20789;-78
2023/11/20 01:32:37;;;;;;;7.07;2.38;;;;;;;;;;5010993;28;20437;-77
2023/11/20 01:35:04;;;;;;;9.02;2.38;;;;;;;;;;5021649;28;20190;-78
2023/11/20 01:37:30;;;;;;;6.40;2.03;;;;;;;;;;5012711;28;20230;-77
2023/11/20 01:39:55;;;;;;;5.77;1.80;;;;;;;;;;5016339;28;20187;-77
2023/11/20 01:42:21;;;;;;;6.47;1.93;;;;;;;;;;5011079;28;20965;-78
2023/11/20 01:44:48;;;;;;;10.83;2.10;;;;;;;;;;5019985;28;20514;-78
2023/11/20 01:47:13;;;;;;;10.02;2.05;;;;;;;;;;5016244;28;20410;-78
2023/11/20 01:49:42;;;;;;;4.77;2.10;;;;;;;;;;5012301;28;20661;-78
2023/11/20 01:52:09;;;;;;;7.68;2.17;;;;;;;;;;5017935;28;20437;-79
2023/11/20 01:54:35;;;;;;;4.60;1.50;;;;;;;;;;5014368;28;20179;-79
2023/11/20 01:57:02;;;;;;;7.25;1.83;;;;;;;;;;5015708;28;20210;-79
2023/11/20 01:59:29;;;;;;;10.00;2.72;;;;;;;;;;5017136;28;20183;-79
2023/11/20 02:01:56;;;;;;;6.75;2.03;;;;;;;;;;5017592;28;20285;-79
2023/11/20 02:04:23;;;;;;;4.35;2.10;;;;;;;;;;5018539;28;20191;-79
2023/11/20 02:06:50;;;;;;;9.35;1.67;;;;;;;;;;5013165;28;20183;-80
2023/11/20 02:09:16;;;;;;;10.55;2.75;;;;;;;;;;5016486;28;20186;-81
2023/11/20 02:11:44;;;;;;;8.52;2.70;;;;;;;;;;5005881;28;20415;-79
2023/11/20 02:14:11;;;;;;;6.45;2.03;;;;;;;;;;5015085;28;20175;-79
2023/11/20 02:16:37;;;;;;;6.47;1.77;;;;;;;;;;5012104;28;20243;-80
2023/11/20 02:19:29;;;;;;;11.40;1.70;;;;;;;;;;5008215;28;20186;-79
2023/11/20 02:21:55;;;;;;;2.08;1.33;;;;;;;;;;5009348;28;20978;-78
2023/11/20 02:24:22;;;;;;;8.93;1.65;;;;;;;;;;5019647;28;20190;-80
2023/11/20 02:26:53;;;;;;;8.05;2.15;;;;;;;;;;5011224;28;20224;-80
2023/11/20 02:29:24;;;;;;;14.07;3.35;;;;;;;;;;5012492;28;20183;-81
2023/11/20 02:31:50;;;;;;;10.82;2.17;;;;;;;;;;4994099;28;20677;-80
2023/11/20 02:34:16;;;;;;;8.10;2.08;;;;;;;;;;5010992;28;20672;-79
2023/11/20 02:36:42;;;;;;;8.00;1.40;;;;;;;;;;5023877;28;20320;-79
2023/11/20 02:39:09;;;;;;;10.02;1.80;;;;;;;;;;5014450;28;20187;-78
2023/11/20 02:41:36;;;;;;;8.30;1.65;;;;;;;;;;5013560;28;20234;-79
2023/11/20 02:44:03;;;;;;;4.63;1.70;;;;;;;;;;5020207;28;20178;-80
2023/11/20 02:46:28;;;;;;;6.45;2.22;;;;;;;;;;5014386;28;20183;-79
2023/11/20 02:48:54;;;;;;;7.60;1.97;;;;;;;;;;5012150;28;20300;-80
2023/11/20 02:51:20;;;;;;;3.38;1.30;;;;;;;;;;5017387;28;20437;-79
2023/11/20 02:53:46;;;;;;;4.20;1.17;;;;;;;;;;5007093;28;20198;-79
2023/11/20 02:56:12;;;;;;;10.57;1.63;;;;;;;;;;5015696;28;20487;-80
2023/11/20 02:58:38;;;;;;;2.67;1.47;;;;;;;;;;5008687;28;20442;-79
2023/11/20 03:01:04;;;;;;;6.53;1.30;;;;;;;;;;5012344;28;20434;-80
2023/11/20 03:03:30;;;;;;;6.95;1.50;;;;;;;;;;5008838;28;20421;-80
2023/11/20 03:05:56;;;;;;;8.65;2.20;;;;;;;;;;5003401;28;20210;-79
2023/11/20 03:08:23;;;;;;;4.13;1.67;;;;;;;;;;5005867;28;20285;-79
2023/11/20 03:10:49;;;;;;;3.63;1.45;;;;;;;;;;5012209;28;20195;-78
2023/11/20 03:13:15;;;;;;;3.33;1.10;;;;;;;;;;5013130;28;20184;-78
2023/11/20 03:15:41;;;;;;;2.70;1.30;;;;;;;;;;5005222;28;20187;-78
2023/11/20 03:18:07;;;;;;;7.22;2.28;;;;;;;;;;5011464;28;20516;-78
2023/11/20 03:20:34;;;;;;;5.93;2.47;;;;;;;;;;5014172;28;20187;-77
2023/11/20 03:23:00;;;;;;;4.53;1.30;;;;;;;;;;5004768;28;20187;-77
2023/11/20 03:25:26;;;;;;;4.88;1.40;;;;;;;;;;5008052;28;20179;-78
2023/11/20 03:27:54;;;;;;;3.87;1.03;;;;;;;;;;5006237;28;20248;-79
2023/11/20 03:30:22;;;;;;;9.70;1.58;;;;;;;;;;5012285;28;20774;-77
2023/11/20 03:32:48;;;;;;;4.55;1.45;;;;;;;;;;5001056;28;20199;-76
2023/11/20 03:35:14;;;;;;;4.35;1.17;;;;;;;;;;5014604;28;20186;-76
2023/11/20 03:37:40;;;;;;;2.77;1.20;;;;;;;;;;5010681;28;20223;-77
2023/11/20 03:40:07;;;;;;;2.13;1.15;;;;;;;;;;5015476;28;20430;-77
2023/11/20 03:42:36;;;;;;;6.68;1.13;;;;;;;;;;5014070;28;20282;-78
2023/11/20 03:45:02;;;;;;;5.95;1.55;;;;;;;;;;5011903;28;20194;-77
2023/11/20 03:47:28;;;;;;;11.45;2.55;;;;;;;;;;5006370;28;20278;-77
2023/11/20 03:49:54;;;;;;;2.83;1.00;;;;;;;;;;5020352;28;20206;-78
2023/11/20 03:52:20;;;;;;;7.07;1.58;;;;;;;;;;5018624;28;20484;-77
2023/11/20 03:54:46;;;;;;;4.40;1.23;;;;;;;;;;4995000;28;20210;-77
2023/11/20 03:57:12;;;;;;;3.73;1.23;;;;;;;;;;5019960;28;20485;-77
2023/11/20 03:59:38;;;;;;;4.30;1.37;;;;;;;;;;5020925;28;20425;-77
2023/11/20 04:02:04;;;;;;;4.10;1.30;;;;;;;;;;5009929;28;20423;-77
2023/11/20 04:04:30;;;;;;;3.83;1.10;;;;;;;;;;5022374;28;20900;-78
2023/11/20 04:06:58;;;;;;;3.90;1.10;;;;;;;;;;5016961;28;20572;-77
2023/11/20 04:09:24;;;;;;;3.67;1.10;;;;;;;;;;5009014;28;20434;-77
2023/11/20 04:11:50;;;;;;;4.17;1.43;;;;;;;;;;5011312;28;20534;-77
2023/11/20 04:14:16;;;;;;;2.63;1.10;;;;;;;;;;5012348;28;20431;-77
2023/11/20 04:16:42;;;;;;;5.10;1.30;;;;;;;;;;5018884;28;20710;-78
2023/11/20 04:19:09;;;;;;;1.95;1.00;;;;;;;;;;5018868;28;20197;-78
2023/11/20 04:21:35;;;;;;;2.45;1.50;;;;;;;;;;5018410;28;20195;-77
2023/11/20 04:24:01;;;;;;;3.10;1.20;;;;;;;;;;5020652;28;20650;-77
2023/11/20 04:26:27;;;;;;;4.57;1.27;;;;;;;;;;5013184;28;20472;-77
2023/11/20 04:28:56;;;;;;;3.47;1.15;;;;;;;;;;5016819;28;20413;-78
2023/11/20 04:31:22;;;;;;;5.25;1.50;;;;;;;;;;5018685;28;20195;-77
2023/11/20 04:33:48;;;;;;;4.60;1.17;;;;;;;;;;5010580;28;20186;-77
2023/11/20 04:36:14;;;;;;;3.90;1.70;;;;;;;;;;5022212;28;20312;-78
2023/11/20 04:38:41;;;;;;;4.70;1.40;;;;;;;;;;5017190;28;20178;-78
2023/11/20 04:41:07;;;;;;;4.50;1.10;;;;;;;;;;5007979;28;20278;-78
2023/11/20 04:43:33;;;;;;;10.15;1.85;;;;;;;;;;5004546;28;20622;-78
2023/11/20 04:45:59;;;;;;;4.97;1.57;;;;;;;;;;5015445;28;20187;-78
2023/11/20 04:48:25;;;;;;;3.53;1.38;;;;;;;;;;5021541;28;20441;-77
2023/11/20 04:50:52;;;;;;;9.17;1.73;;;;;;;;;;5016279;28;20199;-78
2023/11/20 04:53:18;;;;;;;4.03;2.55;;;;;;;;;;5012611;28;20413;-78
2023/11/20 04:55:44;;;;;;;13.27;2.00;;;;;;;;;;5011255;28;20187;-77
2023/11/20 04:58:10;;;;;;;2.17;1.30;;;;;;;;;;5015435;28;20218;-78
2023/11/20 05:00:36;;;;;;;5.50;1.93;;;;;;;;;;5013181;28;20429;-78
2023/11/20 05:03:02;;;;;;;4.07;1.47;;;;;;;;;;5023000;28;20530;-77
2023/11/20 05:05:28;;;;;;;5.93;1.10;;;;;;;;;;5014395;28;20438;-79
2023/11/20 05:07:54;;;;;;;4.63;1.60;;;;;;;;;;5011734;28;20559;-78
2023/11/20 05:10:20;;;;;;;3.55;1.30;;;;;;;;;;5016474;28;20411;-78
2023/11/20 05:12:46;;;;;;;7.40;1.50;;;;;;;;;;5018682;28;20273;-78
2023/11/20 05:15:12;;;;;;;2.03;1.23;;;;;;;;;;5007090;28;20484;-78
2023/11/20 05:17:38;;;;;;;8.63;1.53;;;;;;;;;;5008012;28;21063;-77
2023/11/20 05:20:06;;;;;;;4.77;1.10;;;;;;;;;;5015157;28;20830;-79
2023/11/20 05:22:32;;;;;;;6.80;1.80;;;;;;;;;;5017392;28;20459;-78
2023/11/20 05:24:58;;;;;;;6.68;1.63;;;;;;;;;;5018349;28;20179;-78
2023/11/20 05:27:24;;;;;;;4.65;2.00;;;;;;;;;;5004296;28;20206;-78
2023/11/20 05:29:50;;;;;;;9.98;1.75;;;;;;;;;;5017208;28;20191;-78
2023/11/20 05:32:16;;;;;;;11.27;3.35;;;;;;;;;;5020820;28;20714;-78
2023/11/20 05:34:43;;;;;;;5.45;1.73;;;;;;;;;;5019909;28;20179;-78
2023/11/20 05:37:09;;;;;;;6.80;1.75;;;;;;;;;;5020598;28;20210;-78
2023/11/20 05:39:35;;;;;;;10.00;2.67;;;;;;;;;;5016053;28;20214;-78
2023/11/20 05:42:01;;;;;;;8.30;2.17;;;;;;;;;;5015915;28;20889;-78
2023/11/20 05:44:27;;;;;;;11.47;2.67;;;;;;;;;;5014748;28;20217;-78
2023/11/20 05:46:53;;;;;;;8.10;2.80;;;;;;;;;;5017465;28;20436;-79
2023/11/20 05:49:19;;;;;;;9.03;1.90;;;;;;;;;;5020061;28;20417;-78
2023/11/20 05:51:45;;;;;;;7.83;1.57;;;;;;;;;;5019635;28;20511;-78
2023/11/20 05:54:11;;;;;;;10.18;3.10;;;;;;;;;;5019041;28;20405;-79
2023/11/20 05:56:37;;;;;;;12.20;2.30;;;;;;;;;;5015815;28;20677;-78
2023/11/20 05:59:03;;;;;;;15.50;3.30;;;;;;;;;;5016542;28;20441;-79
2023/11/20 06:01:39;;;;;;;8.65;2.45;;;;;;;;;;5013286;28;20270;-78
2023/11/20 06:04:08;;;;;;;11.82;3.03;;;;;;;;;;5015261;28;20649;-78
2023/11/20 06:06:34;;;;;;;11.18;3.92;;;;;;;;;;5007058;28;20235;-78
2023/11/20 06:09:03;;;;;;;3.57;1.83;;;;;;;;;;5019171;28;20184;-78
2023/11/20 06:11:30;;;;;;;10.50;2.45;;;;;;;;;;5005264;28;20446;-78
2023/11/20 06:13:57;;;;;;;7.15;2.17;;;;;;;;;;5021608;28;20179;-78
2023/11/20 06:16:23;;;;;;;13.18;2.63;;;;;;;;;;5017242;28;20575;-79
2023/11/20 06:18:49;;;;;;;7.97;2.80;;;;;;;;;;5010587;28;20201;-78
2023/11/20 06:21:15;;;;;;;9.23;2.33;;;;;;;;;;5009475;28;20431;-78
2023/11/20 06:23:41;;;;;;;6.17;1.93;;;;;;;;;;5024879;28;20909;-79
2023/11/20 06:26:06;;;;;;;8.90;2.73;;;;;;;;;;5011382;28;20434;-78
2023/11/20 06:28:33;;;;;;;10.47;2.00;;;;;;;;;;5013319;28;20432;-81
2023/11/20 06:30:59;;;;;;;10.40;2.10;;;;;;;;;;5013472;28;20426;-81
2023/11/20 06:33:24;;;;;;;11.32;1.70;;;;;;;;;;5017097;28;20277;-78
2023/11/20 06:35:50;;;;;;;6.73;2.70;;;;;;;;;;5011145;28;20265;-78
2023/11/20 06:38:16;;;;;;;10.10;1.73;;;;;;;;;;5016833;28;20472;-78
2023/11/20 06:40:43;;;;;;;22.93;3.20;;;;;;;;;;5008054;28;20481;-78
2023/11/20 06:43:09;;;;;;;12.00;2.85;;;;;;;;;;5015463;28;20427;-79
2023/11/20 06:45:35;;;;;;;8.23;2.33;;;;;;;;;;5016167;28;20179;-78
2023/11/20 06:48:01;;;;;;;15.18;2.33;;;;;;;;;;5014254;28;20438;-78
2023/11/20 06:50:28;;;;;;;6.15;1.95;;;;;;;;;;5008011;28;20237;-79
2023/11/20 06:52:57;;;;;;;6.97;2.22;;;;;;;;;;5014628;28;20175;-79
2023/11/20 06:55:23;;;;;;;7.63;3.30;;;;;;;;;;5012100;28;20186;-78
2023/11/20 06:57:50;;;;;;;9.77;3.00;;;;;;;;;;5022506;28;20221;-79
2023/11/20 07:00:18;;;;;;;14.45;3.10;;;;;;;;;;5016710;28;20238;-79
2023/11/20 07:02:44;;;;;;;13.50;2.75;;;;;;;;;;5013495;28;20187;-78
2023/11/20 07:05:17;;;;;;;14.63;3.65;;;;;;;;;;5014679;28;20627;-78
2023/11/20 07:07:52;;;;;;;11.75;2.13;;;;;;;;;;5016913;28;20609;-78
2023/11/20 07:10:23;;;;;;;8.85;1.90;;;;;;;;;;5013191;28;20217;-79
2023/11/20 07:12:58;;;;;;;7.93;2.53;;;;;;;;;;5012641;28;20179;-80
2023/11/20 07:15:24;;;;;;;8.73;2.30;;;;;;;;;;5009790;28;20173;-79
2023/11/20 07:17:51;;;;;;;12.57;3.22;;;;;;;;;;5014539;28;20211;-78
2023/11/20 07:20:17;;;;;;;6.57;3.25;;;;;;;;;;5015595;28;20190;-78
2023/11/20 07:22:45;;;;;;;8.43;2.38;;;;;;;;;;5014307;28;20234;-79
2023/11/20 07:25:12;;;;;;;5.57;1.70;;;;;;;;;;5012870;28;20179;-79
2023/11/20 07:27:38;;;;;;;5.40;2.30;;;;;;;;;;5008678;28;20191;-79
2023/11/20 07:30:06;;;;;;;15.15;2.08;;;;;;;;;;5008930;28;20175;-79
2023/11/20 07:32:33;;;;;;;9.40;2.35;;;;;;;;;;5014118;28;20198;-79
2023/11/20 07:34:59;;;;;;;11.65;2.30;;;;;;;;;;5017610;28;20248;-79
2023/11/20 07:37:25;;;;;;;13.00;3.10;;;;;;;;;;5009040;28;20635;-81
2023/11/20 07:39:51;;;;;;;19.03;2.60;;;;;;;;;;5006675;28;20414;-79
2023/11/20 07:42:17;;;;;;;13.63;2.67;;;;;;;;;;5005191;28;20481;-79
2023/11/20 07:44:43;;;;;;;10.57;1.90;;;;;;;;;;5020854;28;20238;-78
2023/11/20 07:47:10;;;;;;;9.90;2.03;;;;;;;;;;5010770;28;20415;-79
2023/11/20 07:49:38;;;;;;;8.10;3.08;;;;;;;;;;5013054;28;20406;-80
2023/11/20 07:52:04;;;;;;;10.00;2.75;;;;;;;;;;5013567;28;20182;-79
2023/11/20 07:54:30;;;;;;;9.93;2.35;;;;;;;;;;5013589;28;20190;-79
2023/11/20 07:56:57;;;;;;;11.33;2.20;;;;;;;;;;5005900;28;20230;-79
2023/11/20 07:59:23;;;;;;;11.02;2.20;;;;;;;;;;5015087;28;20405;-79
2023/11/20 08:01:51;;;;;;;11.75;3.00;;;;;;;;;;5016568;28;20209;-80
2023/11/20 08:04:17;;;;;;;14.05;3.13;;;;;;;;;;5017244;28;20556;-79
2023/11/20 08:06:45;;;;;;;17.20;3.03;;;;;;;;;;5008117;28;20190;-79
2023/11/20 08:09:12;;;;;;;7.85;2.28;;;;;;;;;;5016462;28;20433;-78
2023/11/20 08:11:38;;;;;;;11.50;2.42;;;;;;;;;;5012701;28;20545;-81
2023/11/20 08:14:04;;;;;;;7.65;1.95;;;;;;;;;;5019867;28;20206;-78
2023/11/20 08:16:30;;;;;;;9.23;2.45;;;;;;;;;;5010151;28;20215;-79
2023/11/20 08:18:57;;;;;;;5.80;1.90;;;;;;;;;;5014240;28;20183;-79
2023/11/20 08:21:24;;;;;;;12.98;3.42;;;;;;;;;;5013112;28;20426;-79
2023/11/20 08:23:50;;;;;;;7.50;2.83;;;;;;;;;;5020428;28;20262;-79
2023/11/20 08:26:17;;;;;;;13.43;2.90;;;;;;;;;;5010222;28;20330;-79
2023/11/20 08:28:46;;;;;;;14.02;2.72;;;;;;;;;;5016004;28;20689;-79
2023/11/20 08:31:12;;;;;;;7.72;2.40;;;;;;;;;;5009016;28;20199;-79
2023/11/20 08:33:38;;;;;;;9.30;1.80;;;;;;;;;;5013716;28;20175;-79
2023/11/20 08:36:04;;;;;;;9.60;2.40;;;;;;;;;;5018109;28;20190;-79
2023/11/20 08:38:30;;;;;;;11.02;3.03;;;;;;;;;;5019097;28;20462;-79
2023/11/20 08:40:57;;;;;;;9.13;1.88;;;;;;;;;;5002228;28;20246;-79
2023/11/20 08:43:23;;;;;;;5.03;1.55;;;;;;;;;;5018513;28;20178;-79
2023/11/20 08:45:49;;;;;;;11.00;1.80;;;;;;;;;;5013268;28;20195;-79
2023/11/20 08:48:15;;;;;;;7.82;1.70;;;;;;;;;;5016815;28;20452;-79
2023/11/20 08:50:41;;;;;;;4.73;1.50;;;;;;;;;;5017982;28;20214;-79
2023/11/20 08:53:07;;;;;;;5.63;2.10;;;;;;;;;;5020006;28;20418;-79
2023/11/20 08:55:33;;;;;;;8.93;2.10;;;;;;;;;;5009429;28;20430;-80
2023/11/20 08:57:59;;;;;;;7.22;1.40;;;;;;;;;;5001889;28;20474;-79
2023/11/20 09:00:25;;;;;;;6.13;1.97;;;;;;;;;;5017247;28;20186;-79
2023/11/20 09:02:51;;;;;;;6.80;1.63;;;;;;;;;;5013547;28;20434;-79
2023/11/20 09:05:17;;;;;;;4.37;1.40;;;;;;;;;;5013814;28;20415;-79
2023/11/20 09:07:43;;;;;;;6.47;1.33;;;;;;;;;;5013623;28;20424;-79
2023/11/20 09:10:10;;;;;;;6.85;2.00;;;;;;;;;;5017492;28;20413;-79
2023/11/20 09:12:37;;;;;;;7.65;2.13;;;;;;;;;;5021408;28;20179;-79
2023/11/20 09:15:04;;;;;;;4.70;1.83;;;;;;;;;;5020746;28;20195;-79
2023/11/20 09:17:30;;;;;;;6.78;1.45;;;;;;;;;;5015643;28;20207;-80
2023/11/20 09:19:57;;;;;;;3.95;1.67;;;;;;;;;;5012215;28;20252;-78
2023/11/20 09:22:25;;;;;;;4.68;1.88;;;;;;;;;;5018385;28;20178;-79
2023/11/20 09:24:51;;;;;;;5.07;1.50;;;;;;;;;;5019295;28;20201;-79
2023/11/20 09:27:18;;;;;;;8.88;1.63;;;;;;;;;;5006483;28;20191;-78
2023/11/20 09:29:44;;;;;;;5.78;1.58;;;;;;;;;;5017276;28;20237;-79
2023/11/20 09:32:10;;;;;;;3.00;1.20;;;;;;;;;;5013854;28;20187;-80
2023/11/20 09:34:36;;;;;;;4.85;1.40;;;;;;;;;;5019652;28;20195;-79
2023/11/20 09:37:03;;;;;;;6.53;1.52;;;;;;;;;;5025349;28;20207;-79
2023/11/20 09:39:29;;;;;;;13.55;1.73;;;;;;;;;;5016733;28;20670;-79
2023/11/20 09:41:55;;;;;;;3.90;1.23;;;;;;;;;;5009135;28;20317;-80
2023/11/20 09:44:26;;;;;;;4.80;1.42;;;;;;;;;;5015145;28;20598;-78
2023/11/20 09:46:53;;;;;;;3.90;1.70;;;;;;;;;;5010468;28;20300;-82
2023/11/20 09:49:22;;;;;;;2.45;0.90;;;;;;;;;;5014645;28;20201;-80
2023/11/20 09:51:49;;;;;;;7.13;1.38;;;;;;;;;;5021276;28;20167;-79
2023/11/20 09:54:16;;;;;;;7.63;1.60;;;;;;;;;;5013638;28;20242;-79
2023/11/20 09:56:42;;;;;;;4.43;1.20;;;;;;;;;;5011687;28;20229;-79
2023/11/20 09:59:11;;;;;;;4.40;1.50;;;;;;;;;;5008902;28;20183;-79
2023/11/20 10:01:40;;;;;;;5.93;1.55;;;;;;;;;;5011040;28;20179;-79
2023/11/20 10:04:08;;;;;;;9.57;1.50;;;;;;;;;;5012980;28;20174;-79
2023/11/20 10:06:36;;;;;;;7.13;1.50;;;;;;;;;;5011306;28;20248;-79
2023/11/20 10:09:02;;;;;;;7.40;1.80;;;;;;;;;;5017606;28;20210;-79
2023/11/20 10:11:31;;;;;;;6.15;1.48;;;;;;;;;;5010264;28;20184;-79
2023/11/20 10:13:57;;;;;;;4.40;1.20;;;;;;;;;;5014994;28;20236;-79
2023/11/20 10:16:24;;;;;;;4.38;1.05;;;;;;;;;;5015334;28;20186;-79
2023/11/20 10:18:51;;;;;;;5.43;1.30;;;;;;;;;;5015539;28;20654;-80
2023/11/20 10:21:19;;;;;;;2.35;0.95;;;;;;;;;;5015347;28;20187;-79
2023/11/20 10:23:45;;;;;;;9.18;1.60;;;;;;;;;;5018486;28;20183;-80
2023/11/20 10:26:11;;;;;;;4.43;0.80;;;;;;;;;;5012321;28;20210;-78
2023/11/20 10:28:38;;;;;;;3.40;1.35;;;;;;;;;;5011340;28;20501;-78
2023/11/20 10:31:05;;;;;;;2.75;0.90;;;;;;;;;;5015652;28;20195;-80
2023/11/20 10:33:30;;;;;;;5.93;1.65;;;;;;;;;;5015093;28;20183;-78
2023/11/20 10:36:09;;;;;;;2.00;1.20;;;;;;;;;;5013440;28;20190;-78
2023/11/20 10:38:35;;;;;;;3.97;1.10;;;;;;;;;;5018232;28;20444;-78
2023/11/20 10:41:02;;;;;;;1.70;1.00;;;;;;;;;;5007411;28;20230;-78
2023/11/20 10:43:30;;;;;;;1.55;1.08;;;;;;;;;;5003574;28;20946;-78
2023/11/20 10:45:57;;;;;;;3.15;1.23;;;;;;;;;;5011822;28;20186;-78
2023/11/20 10:48:24;;;;;;;4.32;1.75;;;;;;;;;;5014713;28;20189;-78
2023/11/20 10:50:52;;;;;;;5.38;1.35;;;;;;;;;;5019035;28;20182;-78
2023/11/20 10:53:18;;;;;;;2.40;1.08;;;;;;;;;;5005609;28;20171;-78
2023/11/20 10:55:50;;;;;;;2.60;1.00;;;;;;;;;;5016599;28;20194;-78
2023/11/20 10:58:16;;;;;;;4.88;1.63;;;;;;;;;;5018426;28;20218;-79
2023/11/20 11:00:44;;;;;;;2.80;1.52;;;;;;;;;;5013575;28;20249;-78
2023/11/20 11:03:11;;;;;;;4.15;1.20;;;;;;;;;;5010230;28;20560;-79
2023/11/20 11:05:39;;;;;;;6.60;1.38;;;;;;;;;;5012298;28;20199;-78
2023/11/20 11:08:08;;;;;;;4.25;1.20;;;;;;;;;;5017234;28;20206;-78
2023/11/20 11:10:35;;;;;;;4.05;1.40;;;;;;;;;;5017063;28;20197;-78
2023/11/20 11:13:01;;;;;;;4.88;1.58;;;;;;;;;;5014819;28;20190;-78
2023/11/20 11:15:29;;;;;;;5.10;1.17;;;;;;;;;;5014972;28;20183;-78
2023/11/20 11:17:55;;;;;;;5.30;2.08;;;;;;;;;;5010682;28;20553;-78
2023/11/20 11:20:23;;;;;;;4.22;1.40;;;;;;;;;;5014370;28;20235;-78
2023/11/20 11:22:56;;;;;;;3.17;1.20;;;;;;;;;;5020679;28;20217;-78
2023/11/20 11:25:27;;;;;;;3.47;1.30;;;;;;;;;;5013771;28;20554;-80
2023/11/20 11:27:57;;;;;;;4.00;1.60;;;;;;;;;;5003613;28;20195;-80
2023/11/20 11:30:24;;;;;;;4.57;1.27;;;;;;;;;;5012922;28;20193;-80
2023/11/20 11:33:09;;;;;;;4.63;1.58;;;;;;;;;;5007908;28;20233;-85
2023/11/20 11:35:53;;;;;;;1.30;0.90;;;;;;;;;;5017545;28;20182;-81
2023/11/20 11:38:25;;;;;;;8.73;1.40;;;;;;;;;;5011932;28;20210;-81
2023/11/20 11:41:00;;;;;;;5.55;1.50;;;;;;;;;;5006533;28;20230;-81
2023/11/20 11:43:36;;;;;;;1.67;1.00;;;;;;;;;;5009292;28;20539;-81
2023/11/20 11:46:03;;;;;;;3.35;1.35;;;;;;;;;;5012894;28;20178;-81
2023/11/20 11:48:36;;;;;;;4.45;1.20;;;;;;;;;;5011917;28;20175;-81
2023/11/20 11:51:02;;;;;;;2.88;1.35;;;;;;;;;;5015180;28;20198;-81
2023/11/20 11:53:28;;;;;;;2.58;0.95;;;;;;;;;;5013970;28;20191;-82
2023/11/20 11:55:59;;;;;;;2.03;1.20;;;;;;;;;;5015717;28;20541;-81
2023/11/20 11:58:27;;;;;;;3.53;0.90;;;;;;;;;;5008774;28;20480;-80
2023/11/20 12:01:12;;;;;;;2.33;1.20;;;;;;;;;;5003468;28;20202;-81
2023/11/20 12:03:38;;;;;;;4.07;1.23;;;;;;;;;;5011447;28;20226;-82
2023/11/20 12:06:05;;;;;;;2.03;0.90;;;;;;;;;;5010234;28;20225;-81
2023/11/20 12:08:34;;;;;;;4.40;0.80;;;;;;;;;;5010572;28;20427;-81
2023/11/20 12:11:00;;;;;;;2.97;0.90;;;;;;;;;;5012259;28;20650;-81
2023/11/20 12:13:26;;;;;;;3.85;0.80;;;;;;;;;;5017658;28;20183;-83
2023/11/20 12:15:55;;;;;;;2.38;0.98;;;;;;;;;;5020796;28;20186;-81
2023/11/20 12:18:28;;;;;;;3.92;1.00;;;;;;;;;;5009142;28;20610;-81
2023/11/20 12:20:57;;;;;;;2.65;1.08;;;;;;;;;;5016355;28;20190;-81
2023/11/20 12:23:30;;;;;;;2.50;1.00;;;;;;;;;;5017591;28;20220;-80
2023/11/20 12:25:57;;;;;;;3.20;1.10;;;;;;;;;;5017429;28;20197;-80
2023/11/20 12:28:24;;;;;;;3.05;1.50;;;;;;;;;;5012780;28;20593;-80
2023/11/20 12:30:54;;;;;;;6.28;1.25;;;;;;;;;;5019769;28;20186;-80
2023/11/20 12:33:21;;;;;;;1.85;1.30;;;;;;;;;;5016984;28;20171;-81
2023/11/20 12:35:54;;;;;;;2.95;1.10;;;;;;;;;;5015926;28;20549;-81
2023/11/20 12:38:20;;;;;;;11.90;4.82;;;;;;;;;;5019479;28;20213;-81
2023/11/20 12:40:50;;;;;;;3.63;1.20;;;;;;;;;;5013646;28;20234;-80
2023/11/20 12:43:16;;;;;;;3.88;1.17;;;;;;;;;;5014401;28;20201;-80
2023/11/20 12:45:44;;;;;;;9.57;2.88;;;;;;;;;;5009063;28;20179;-80
2023/11/20 12:48:10;;;;;;;5.10;2.30;;;;;;;;;;5014659;28;20186;-80
2023/11/20 12:50:37;;;;;;;4.67;2.03;;;;;;;;;;5018792;28;20616;-80
2023/11/20 12:53:03;;;;;;;14.05;2.92;;;;;;;;;;5015963;28;20498;-80
2023/11/20 12:55:29;;;;;;;4.18;1.50;;;;;;;;;;5006761;28;20241;-81
2023/11/20 12:57:55;;;;;;;5.63;2.08;;;;;;;;;;4992881;28;20219;-80
2023/11/20 13:00:22;;;;;;;4.75;1.52;;;;;;;;;;5013264;28;20524;-81
2023/11/20 13:03:00;;;;;;;5.53;2.05;;;;;;;;;;5013109;28;20214;-80
2023/11/20 13:05:27;;;;;;;5.95;1.80;;;;;;;;;;5018817;28;20330;-80
2023/11/20 13:07:55;;;;;;;6.60;1.67;;;;;;;;;;5018867;28;20232;-81
2023/11/20 13:10:21;;;;;;;4.88;1.50;;;;;;;;;;5019168;28;20188;-81
2023/11/20 13:12:47;;;;;;;7.78;2.05;;;;;;;;;;5013568;28;20183;-80
2023/11/20 13:15:13;;;;;;;6.38;1.80;;;;;;;;;;5012280;28;20201;-81
2023/11/20 13:17:40;;;;;;;5.23;2.23;;;;;;;;;;5011554;28;20690;-80
2023/11/20 13:20:26;;;;;;;9.43;1.90;;;;;;;;;;5007279;28;20743;-81
2023/11/20 13:22:52;;;;;;;9.00;2.75;;;;;;;;;;5011017;28;20194;-80
2023/11/20 13:25:24;;;;;;;6.93;1.87;;;;;;;;;;5020673;28;20174;-81
2023/11/20 13:27:50;;;;;;;3.75;1.60;;;;;;;;;;5004473;28;20913;-81
2023/11/20 13:30:16;;;;;;;10.18;2.33;;;;;;;;;;5016476;28;20189;-80
2023/11/20 13:32:43;;;;;;;4.50;1.88;;;;;;;;;;5010466;28;20317;-81
2023/11/20 13:35:09;;;;;;;5.75;2.28;;;;;;;;;;5019070;28;20650;-80
2023/11/20 13:37:36;;;;;;;7.23;1.80;;;;;;;;;;5014348;28;20272;-81
2023/11/20 13:40:07;;;;;;;3.63;1.73;;;;;;;;;;4983274;28;20434;-83
2023/11/20 13:42:33;;;;;;;6.95;2.05;;;;;;;;;;5012035;28;20254;-81
2023/11/20 13:45:01;;;;;;;8.93;2.22;;;;;;;;;;5009164;28;20190;-81
2023/11/20 13:47:26;;;;;;;6.13;1.50;;;;;;;;;;5008656;28;20631;-83
2023/11/20 13:49:52;;;;;;;7.17;1.90;;;;;;;;;;5020896;28;20833;-81
2023/11/20 13:52:18;;;;;;;8.50;1.80;;;;;;;;;;5012354;28;20449;-81
2023/11/20 13:54:46;;;;;;;9.30;1.70;;;;;;;;;;5015819;28;20444;-81
2023/11/20 13:57:13;;;;;;;4.10;2.00;;;;;;;;;;5010270;28;20960;-82
2023/11/20 13:59:39;;;;;;;8.30;2.70;;;;;;;;;;5010664;28;20191;-81
2023/11/20 14:02:05;;;;;;;8.20;2.22;;;;;;;;;;5010470;28;20237;-85
2023/11/20 14:04:31;;;;;;;9.50;1.90;;;;;;;;;;5000461;28;20183;-81
2023/11/20 14:06:57;;;;;;;7.53;2.50;;;;;;;;;;5009668;28;20187;-82
2023/11/20 14:09:25;;;;;;;7.87;2.30;;;;;;;;;;5020803;28;20417;-81
2023/11/20 14:11:51;;;;;;;7.25;2.58;;;;;;;;;;5010601;28;20798;-81
2023/11/20 14:14:17;;;;;;;5.70;2.70;;;;;;;;;;5009451;28;20183;-81
2023/11/20 14:16:43;;;;;;;10.32;3.38;;;;;;;;;;5015697;28;20217;-81
2023/11/20 14:19:09;;;;;;;5.28;2.30;;;;;;;;;;5016412;28;20189;-81
2023/11/20 14:21:36;;;;;;;6.70;2.50;;;;;;;;;;5011491;28;20217;-81
2023/11/20 14:24:02;;;;;;;5.32;1.90;;;;;;;;;;5022851;28;20406;-81
2023/11/20 14:26:29;;;;;;;10.02;2.35;;;;;;;;;;5009537;28;20217;-82
2023/11/20 14:28:56;;;;;;;12.52;6.43;;;;;;;;;;5006182;28;20187;-83
2023/11/20 14:31:22;;;;;;;11.48;5.50;;;;;;;;;;5019382;28;20206;-81
2023/11/20 14:33:48;;;;;;;12.90;3.60;;;;;;;;;;4991503;28;20191;-81
2023/11/20 14:36:14;;;;;;;11.40;4.27;;;;;;;;;;5012214;28;20955;-81
2023/11/20 14:38:40;;;;;;;13.17;4.20;;;;;;;;;;5009091;28;20805;-81
2023/11/20 14:41:06;;;;;;;10.43;2.95;;;;;;;;;;5005386;28;20465;-81